Tropical Cyclones
[Index]
Main Index Home Page Stock Weather Photos Extreme Storms Discussion Storm News and Storm Chasing Reports Tropical Cyclones / Hurricanes / Typhoons Weather Data and Links Wild Fires / Bushfires Weather Observation Techniques Weather Picture Catalogue Tornado Pictures and Reports Stock Video Footage and DVDs for sale
Season 1983-1984 Tropical Cyclone LANCE Track Map
Season 1983-1984 Summaries: [BoM-AU] [JTWC-AU] [JTWC-SIO] [JTWC-SPAC] [JTWC-SH]
<<- Previous TC | BoM 1983-1984 Season | Next TC ->>

click for intensity scale information  Lat/long Grid: Show Hide

 Date Labels: Show Hide

Bureau of Meteorology Tropical Cyclone Data

Name: LANCE
Number: 662 / 198384_22

04 Apr 1984 00:00 UTC to 07 Apr 1984 15:00 UTC

    date/time    lat    long    hPa   cat  kts
1984-04-04 00   13.5   153.4   1005                     
1984-04-04 06   13.6   153.3   1001                     
1984-04-04 12   13.8   153.1   1001                     
1984-04-04 18   14.4   152.6   1000                     
1984-04-05 00   15.0   151.9    998                     
1984-04-05 03   15.3   151.6    996                     
1984-04-05 06   15.6   151.4    994    1                
1984-04-05 12   16.2   151.1    992    1                
1984-04-05 18   16.4   151.1    995    1                
1984-04-06 00   16.8   151.1    995    1                
1984-04-06 06   17.6   151.2    995    1                
1984-04-06 12   18.9   151.5    995    1                
1984-04-06 18   19.5   151.7    995    1                
1984-04-07 00   20.2   152.1    995    1                
1984-04-07 03   20.6   152.3    995    1                
1984-04-07 06   21.1   152.5    996                     
1984-04-07 09   21.7   152.8    998                     
1984-04-07 12   22.3   153.1    998                     
1984-04-07 15   23.0   153.5    998                     
Winds are 10-min average.

Tropical cyclone tracks developed by Michael Bath using data from the Bureau of Meteorology and Google Maps.


[Australian Severe Weather index] [Copyright Notice] [Email Contacts] [Search This Site] [Privacy Policy]
Document: tropical_cyclone_lance.htm Updated: 30 May 2013